Time;durP1;ratioP1;P1;durP2;ratioP2;P2;SDS_P1;SDS_P2;PMS_P1;PMS_P2;Temp;Humidity;BMP_temperature;BMP_pressure;BME280_temperature;BME280_humidity;BME280_pressure;Samples;Min_cycle;Max_cycle;Signal;HPM_P1;HPM_P2
2022/04/06 00:01:31;;;;;;;12.43;7.55;;;;;;;11.23;83.68;99711.75;5067466;28;20488;-71
2022/04/06 00:03:57;;;;;;;13.45;7.88;;;;;;;11.33;83.25;99709.31;5067661;28;20053;-72
2022/04/06 00:06:24;;;;;;;12.40;6.97;;;;;;;11.58;81.68;99703.97;5066289;28;20050;-72
2022/04/06 00:08:50;;;;;;;11.02;6.78;;;;;;;11.91;80.32;99712.06;5068001;28;20122;-72
2022/04/06 00:11:16;;;;;;;12.90;7.90;;;;;;;12.12;79.64;99714.91;5067728;28;20044;-71
2022/04/06 00:13:44;;;;;;;12.20;7.60;;;;;;;12.01;79.71;99709.63;5065142;28;20102;-72
2022/04/06 00:16:10;;;;;;;11.40;6.90;;;;;;;11.85;79.87;99704.63;5068208;28;20111;-72
2022/04/06 00:18:37;;;;;;;12.32;7.45;;;;;;;11.50;81.82;99709.78;5068293;28;20044;-72
2022/04/06 00:21:03;;;;;;;12.95;7.82;;;;;;;11.21;82.98;99709.22;5065443;28;20102;-72
2022/04/06 00:23:30;;;;;;;15.40;7.65;;;;;;;11.12;83.17;99703.81;5066410;28;20045;-72
2022/04/06 00:25:56;;;;;;;12.30;7.03;;;;;;;11.16;83.40;99700.81;5066118;28;20190;-72
2022/04/06 00:28:23;;;;;;;10.15;6.43;;;;;;;11.04;83.22;99696.47;5062502;28;20526;-72
2022/04/06 00:30:50;;;;;;;10.38;6.63;;;;;;;11.23;82.99;99701.25;5059411;28;20048;-72
2022/04/06 00:33:17;;;;;;;12.30;7.28;;;;;;;11.35;82.40;99705.63;5065504;28;20117;-72
2022/04/06 00:35:43;;;;;;;15.52;6.43;;;;;;;11.12;82.65;99709.03;5067529;28;20044;-71
2022/04/06 00:38:10;;;;;;;11.07;6.47;;;;;;;11.01;83.11;99699.28;5068139;28;20492;-71
2022/04/06 00:40:37;;;;;;;11.63;6.72;;;;;;;11.04;82.14;99711.34;5055470;28;20045;-71
2022/04/06 00:43:07;;;;;;;9.82;6.15;;;;;;;11.32;80.77;99708.47;5047880;28;20049;-71
2022/04/06 00:45:33;;;;;;;10.38;5.85;;;;;;;11.02;81.02;99703.59;5059744;28;20041;-71
2022/04/06 00:48:01;;;;;;;8.88;5.03;;;;;;;10.90;81.29;99707.06;5066654;28;20052;-71
2022/04/06 00:50:28;;;;;;;12.40;5.53;;;;;;;10.95;80.57;99704.13;5066984;28;20040;-71
2022/04/06 00:52:57;;;;;;;11.00;5.75;;;;;;;11.08;80.50;99697.09;5067088;28;20052;-71
2022/04/06 00:55:26;;;;;;;11.63;5.20;;;;;;;11.24;79.36;99692.41;5065482;28;20155;-71
2022/04/06 00:57:52;;;;;;;8.32;5.82;;;;;;;11.13;79.81;99690.56;5067415;28;20550;-71
2022/04/06 01:00:19;;;;;;;8.15;5.10;;;;;;;11.04;80.09;99695.63;5067793;28;20106;-71
2022/04/06 01:02:45;;;;;;;9.00;5.10;;;;;;;10.92;80.42;99691.22;5067117;28;20040;-71
2022/04/06 01:05:13;;;;;;;6.88;4.65;;;;;;;11.05;79.87;99684.16;5067443;28;20109;-71
2022/04/06 01:07:41;;;;;;;8.95;4.72;;;;;;;10.73;80.39;99671.53;5067897;28;20143;-71
2022/04/06 01:10:08;;;;;;;7.38;4.15;;;;;;;10.92;80.10;99683.34;5066679;28;20056;-71
2022/04/06 01:12:35;;;;;;;7.50;4.75;;;;;;;11.01;80.00;99685.34;5067496;28;20044;-71
2022/04/06 01:15:01;;;;;;;6.53;4.85;;;;;;;11.50;78.23;99678.28;5067519;28;20048;-72
2022/04/06 01:17:32;;;;;;;7.65;4.75;;;;;;;11.58;78.51;99683.81;5065973;28;20098;-73
2022/04/06 01:20:00;;;;;;;8.77;4.82;;;;;;;11.33;79.57;99680.44;5065240;28;20048;-73
2022/04/06 01:22:28;;;;;;;7.95;5.47;;;;;;;11.79;78.17;99684.06;5063451;28;20126;-72
2022/04/06 01:24:54;;;;;;;8.60;4.50;;;;;;;11.89;77.05;99676.34;5049260;28;20041;-72
2022/04/06 01:27:21;;;;;;;11.88;4.93;;;;;;;11.74;78.20;99683.56;5067339;28;20462;-72
2022/04/06 01:29:48;;;;;;;10.45;4.82;;;;;;;11.42;78.98;99680.59;5066616;28;20049;-74
2022/04/06 01:32:18;;;;;;;8.90;4.82;;;;;;;11.05;80.74;99684.16;5064192;28;20094;-74
2022/04/06 01:34:47;;;;;;;9.18;5.05;;;;;;;10.93;81.68;99682.41;5048056;28;20041;-74
2022/04/06 01:37:15;;;;;;;11.07;5.13;;;;;;;11.03;81.35;99683.44;5050891;28;20052;-75
2022/04/06 01:39:44;;;;;;;12.95;5.13;;;;;;;10.88;81.24;99684.50;5062091;28;20041;-74
2022/04/06 01:42:13;;;;;;;9.82;4.88;;;;;;;11.27;80.19;99686.94;5067102;28;20048;-75
2022/04/06 01:44:40;;;;;;;7.50;4.63;;;;;;;11.41;79.83;99683.34;5067102;28;20052;-75
2022/04/06 01:47:08;;;;;;;11.27;5.85;;;;;;;11.27;80.03;99692.19;5067102;28;20393;-76
2022/04/06 01:52:20;;;;;;;9.80;5.15;;;;;;;10.80;82.28;99692.91;5065533;28;20052;-75
2022/04/06 01:54:49;;;;;;;10.38;5.57;;;;;;;11.12;81.64;99698.56;5067603;28;20569;-75
2022/04/06 01:57:17;;;;;;;10.30;5.40;;;;;;;11.07;81.23;99703.28;5066102;28;20110;-75
2022/04/06 01:59:45;;;;;;;8.25;5.20;;;;;;;11.11;81.80;99704.72;5065577;28;20589;-75
2022/04/06 02:02:14;;;;;;;10.48;5.82;;;;;;;11.41;80.63;99702.56;5066898;28;20048;-76
2022/04/06 02:04:41;;;;;;;11.88;5.25;;;;;;;11.60;79.52;99695.03;5068254;28;20056;-76
2022/04/06 02:07:09;;;;;;;10.88;5.55;;;;;;;11.12;81.29;99694.13;5070036;28;20048;-76
2022/04/06 02:09:37;;;;;;;9.82;6.05;;;;;;;11.42;80.32;99698.97;5068973;28;20049;-76
2022/04/06 02:12:06;;;;;;;15.00;5.75;;;;;;;11.11;81.58;99687.22;5068597;28;20053;-76
2022/04/06 02:14:32;;;;;;;11.43;6.20;;;;;;;11.09;82.18;99690.88;5070232;28;20493;-75
2022/04/06 02:16:59;;;;;;;13.43;6.85;;;;;;;11.33;81.10;99691.78;5070269;28;20044;-75
2022/04/06 02:19:26;;;;;;;15.30;7.10;;;;;;;11.45;80.79;99685.66;5069761;28;20044;-74
2022/04/06 02:21:52;;;;;;;14.52;7.80;;;;;;;11.27;81.20;99697.44;5068709;28;20415;-76
2022/04/06 02:24:19;;;;;;;15.05;8.43;;;;;;;11.08;82.25;99697.09;5070081;28;20563;-76
2022/04/06 02:26:45;;;;;;;14.43;7.97;;;;;;;10.71;83.28;99691.78;5070469;28;20048;-75
2022/04/06 02:29:14;;;;;;;14.25;6.78;;;;;;;10.37;84.79;99695.00;5069326;28;20048;-74
2022/04/06 02:31:40;;;;;;;16.35;7.90;;;;;;;10.30;84.92;99685.88;5070312;28;20055;-75
2022/04/06 02:34:06;;;;;;;9.23;5.35;;;;;;;10.19;84.70;99693.63;5070149;28;20118;-75
2022/04/06 02:36:33;;;;;;;11.13;6.00;;;;;;;10.06;85.63;99693.53;5069939;28;20412;-74
2022/04/06 02:39:00;;;;;;;14.63;6.35;;;;;;;10.32;84.90;99683.13;5069279;28;20607;-74
2022/04/06 02:41:26;;;;;;;14.13;6.00;;;;;;;10.32;84.29;99673.50;5069980;28;20098;-74
2022/04/06 02:43:52;;;;;;;11.38;6.10;;;;;;;10.43;84.14;99678.84;5069735;28;20106;-75
2022/04/06 02:46:20;;;;;;;10.10;6.22;;;;;;;10.10;85.22;99671.44;5070096;28;20045;-74
2022/04/06 02:48:47;;;;;;;10.13;6.38;;;;;;;10.08;85.59;99667.25;5067849;28;20562;-73
2022/04/06 02:51:13;;;;;;;14.00;6.80;;;;;;;10.08;85.54;99673.34;5069159;28;20519;-74
2022/04/06 02:53:40;;;;;;;11.80;6.78;;;;;;;9.98;85.60;99677.50;5069711;28;20048;-74
2022/04/06 02:56:08;;;;;;;15.85;6.85;;;;;;;10.10;85.20;99681.94;5068260;28;20048;-74
2022/04/06 02:58:34;;;;;;;14.73;6.25;;;;;;;10.16;85.45;99688.59;5069491;28;20451;-75
2022/04/06 03:01:01;;;;;;;11.50;6.05;;;;;;;10.23;84.72;99680.22;5068141;28;20048;-75
2022/04/06 03:03:28;;;;;;;16.65;7.13;;;;;;;10.21;84.59;99676.84;5069761;28;20070;-75
2022/04/06 03:05:55;;;;;;;16.80;7.28;;;;;;;10.30;84.54;99672.78;5069485;28;20045;-75
2022/04/06 03:08:21;;;;;;;11.90;6.38;;;;;;;10.38;83.80;99674.88;5069428;28;20549;-75
2022/04/06 03:10:48;;;;;;;10.23;6.03;;;;;;;10.47;83.72;99674.25;5060018;28;20075;-75
2022/04/06 03:13:14;;;;;;;11.77;6.30;;;;;;;10.29;84.38;99683.34;5069584;28;20089;-74
2022/04/06 03:15:42;;;;;;;14.68;6.43;;;;;;;10.34;83.79;99669.00;5068305;28;20058;-74
2022/04/06 03:18:08;;;;;;;13.75;5.95;;;;;;;10.39;83.61;99672.13;5066619;28;20589;-74
2022/04/06 03:20:36;;;;;;;17.15;6.43;;;;;;;10.66;82.57;99674.66;5068479;28;20044;-74
2022/04/06 03:23:03;;;;;;;11.85;6.32;;;;;;;10.67;81.96;99661.47;5068869;28;20462;-75
2022/04/06 03:25:29;;;;;;;15.45;6.50;;;;;;;10.67;81.95;99661.47;5069060;28;21074;-74
2022/04/06 03:27:56;;;;;;;13.10;6.22;;;;;;;10.73;81.79;99666.28;5069348;28;20537;-74
2022/04/06 03:30:22;;;;;;;12.65;7.18;;;;;;;10.85;81.52;99663.75;5067023;28;20044;-74
2022/04/06 03:32:48;;;;;;;13.63;6.65;;;;;;;11.04;80.16;99666.75;5069192;28;20524;-74
2022/04/06 03:35:15;;;;;;;13.48;7.18;;;;;;;11.20;79.74;99662.09;5068352;28;20048;-74
2022/04/06 03:37:43;;;;;;;12.07;6.95;;;;;;;11.24;79.58;99656.53;5050049;28;20061;-74
2022/04/06 03:40:10;;;;;;;17.38;8.10;;;;;;;11.00;80.54;99655.66;5068410;28;20459;-74
2022/04/06 03:42:37;;;;;;;19.92;8.27;;;;;;;10.93;80.57;99656.19;5068944;28;20562;-74
2022/04/06 03:45:04;;;;;;;12.82;7.82;;;;;;;10.75;81.29;99659.13;5067501;28;20060;-74
2022/04/06 03:47:30;;;;;;;18.67;9.93;;;;;;;10.57;81.78;99654.31;5067351;28;20094;-74
2022/04/06 03:49:57;;;;;;;22.58;9.32;;;;;;;10.53;82.19;99647.63;5066765;28;20060;-73
2022/04/06 03:52:23;;;;;;;21.77;11.02;;;;;;;10.59;81.78;99653.28;5068129;28;20051;-73
2022/04/06 03:54:51;;;;;;;25.92;12.25;;;;;;;10.48;82.13;99655.81;5069485;28;20459;-73
2022/04/06 03:57:17;;;;;;;18.67;8.75;;;;;;;10.22;82.57;99652.34;5068605;28;20496;-73
2022/04/06 03:59:44;;;;;;;23.50;11.70;;;;;;;10.30;82.56;99654.44;5068107;28;20068;-73
2022/04/06 04:02:10;;;;;;;27.75;13.18;;;;;;;10.38;82.22;99653.91;5067195;28;20109;-73
2022/04/06 04:04:36;;;;;;;21.42;11.18;;;;;;;10.55;81.70;99657.06;5068890;28;20044;-73
2022/04/06 04:07:03;;;;;;;23.40;13.18;;;;;;;10.51;81.12;99650.34;5053155;28;20053;-73
2022/04/06 04:09:30;;;;;;;25.70;13.65;;;;;;;10.63;80.85;99653.91;5064920;28;20106;-74
2022/04/06 04:11:57;;;;;;;27.60;14.15;;;;;;;10.89;79.73;99665.22;5067569;28;20053;-74
2022/04/06 04:14:24;;;;;;;22.83;12.50;;;;;;;10.74;79.70;99657.47;5068399;28;20094;-74
2022/04/06 04:16:50;;;;;;;28.25;12.88;;;;;;;10.79;80.08;99664.19;5068557;28;20094;-74
2022/04/06 04:19:17;;;;;;;23.05;12.85;;;;;;;10.77;79.22;99650.31;5068170;28;20051;-74
2022/04/06 04:21:44;;;;;;;27.90;12.55;;;;;;;10.69;79.28;99656.09;5063199;28;20463;-74
2022/04/06 04:24:10;;;;;;;24.23;13.32;;;;;;;10.70;79.50;99660.41;5063200;28;20049;-74
2022/04/06 04:26:38;;;;;;;26.60;14.75;;;;;;;10.43;80.48;99655.28;5067175;28;20504;-74
2022/04/06 04:29:07;;;;;;;29.42;13.70;;;;;;;10.60;79.50;99660.22;5067837;28;20048;-74
2022/04/06 04:31:34;;;;;;;27.17;14.00;;;;;;;10.86;78.69;99660.19;5068116;28;20049;-74
2022/04/06 04:34:01;;;;;;;28.15;14.15;;;;;;;11.12;77.50;99652.13;5067783;28;20106;-74
2022/04/06 04:36:28;;;;;;;29.35;14.05;;;;;;;11.07;77.04;99656.06;5066956;28;20529;-74
2022/04/06 04:38:55;;;;;;;30.08;14.60;;;;;;;10.87;77.91;99656.59;5066448;28;20036;-74
2022/04/06 04:41:22;;;;;;;26.42;13.32;;;;;;;10.94;77.22;99663.94;5068320;28;20044;-74
2022/04/06 04:43:50;;;;;;;26.38;13.70;;;;;;;11.11;76.50;99663.59;5068310;28;20040;-74
2022/04/06 04:46:17;;;;;;;24.92;13.05;;;;;;;10.87;76.66;99657.44;5067250;28;20040;-75
2022/04/06 04:48:44;;;;;;;21.83;11.65;;;;;;;10.84;76.45;99664.69;5067150;28;20055;-74
2022/04/06 04:51:10;;;;;;;28.40;12.13;;;;;;;10.68;77.18;99663.13;5067027;28;20135;-74
2022/04/06 04:53:37;;;;;;;28.90;13.00;;;;;;;10.72;76.65;99658.50;5067732;28;20044;-74
2022/04/06 04:56:04;;;;;;;22.60;11.27;;;;;;;10.87;75.83;99652.19;5066854;28;20048;-74
2022/04/06 04:58:30;;;;;;;29.10;11.70;;;;;;;10.80;76.30;99653.56;5067741;28;20102;-74
2022/04/06 05:00:56;;;;;;;25.92;11.88;;;;;;;10.68;76.07;99654.41;5066781;28;20045;-74
2022/04/06 05:03:24;;;;;;;21.65;11.25;;;;;;;10.79;76.07;99649.25;5066819;28;20147;-74
2022/04/06 05:05:53;;;;;;;23.95;11.70;;;;;;;10.99;75.13;99656.59;5066898;28;20090;-74
2022/04/06 05:08:19;;;;;;;23.08;8.65;;;;;;;10.96;74.99;99669.94;5067741;28;20064;-74
2022/04/06 05:10:46;;;;;;;18.35;8.68;;;;;;;10.86;75.16;99661.03;5066600;28;20064;-74
2022/04/06 05:13:13;;;;;;;27.40;11.43;;;;;;;11.04;74.71;99672.00;5067441;28;20048;-74
2022/04/06 05:15:39;;;;;;;21.98;11.05;;;;;;;10.94;74.78;99671.00;5066401;28;20562;-74
2022/04/06 05:18:06;;;;;;;22.67;11.27;;;;;;;10.96;74.80;99667.31;5064544;28;20368;-74
2022/04/06 05:20:35;;;;;;;20.80;9.65;;;;;;;10.86;74.64;99671.53;5066506;28;20089;-74
2022/04/06 05:23:01;;;;;;;20.27;10.57;;;;;;;10.91;74.72;99668.56;5067288;28;20409;-74
2022/04/06 05:25:27;;;;;;;23.05;10.45;;;;;;;11.02;74.28;99668.63;5065200;28;20044;-74
2022/04/06 05:27:55;;;;;;;21.00;10.75;;;;;;;11.38;73.46;99675.72;5059921;28;20070;-73
2022/04/06 05:30:24;;;;;;;22.40;10.85;;;;;;;11.21;73.75;99676.91;5067071;28;20044;-74
2022/04/06 05:32:53;;;;;;;21.38;10.20;;;;;;;11.32;73.22;99676.13;5066249;28;20127;-74
2022/04/06 05:35:20;;;;;;;22.83;10.52;;;;;;;11.53;71.94;99678.03;5066882;28;20053;-74
2022/04/06 05:37:48;;;;;;;20.63;10.70;;;;;;;11.22;73.15;99674.19;5051489;28;20056;-74
2022/04/06 05:40:17;;;;;;;24.73;11.15;;;;;;;11.04;73.47;99670.22;5070076;28;20048;-74
2022/04/06 05:42:44;;;;;;;22.35;11.18;;;;;;;10.81;74.80;99665.75;5070891;28;20488;-74
2022/04/06 05:45:11;;;;;;;17.38;9.48;;;;;;;10.94;74.59;99671.00;5070786;28;20056;-74
2022/04/06 05:47:38;;;;;;;18.85;10.43;;;;;;;11.07;73.81;99669.16;5069857;28;20561;-74
2022/04/06 05:50:07;;;;;;;18.13;9.35;;;;;;;11.30;72.77;99680.66;5058101;28;20106;-74
2022/04/06 05:52:34;;;;;;;20.23;9.30;;;;;;;11.33;72.74;99681.28;5070607;28;20052;-74
2022/04/06 05:55:01;;;;;;;20.58;8.98;;;;;;;11.36;72.66;99677.59;5070890;28;20044;-74
2022/04/06 05:57:28;;;;;;;17.15;8.43;;;;;;;11.21;72.90;99672.50;5069887;28;20049;-73
2022/04/06 05:59:54;;;;;;;19.23;8.55;;;;;;;10.66;75.21;99670.28;5069400;28;20048;-73
2022/04/06 06:02:23;;;;;;;18.92;7.80;;;;;;;11.11;73.37;99679.34;5071127;28;20044;-73
2022/04/06 06:04:50;;;;;;;20.27;9.07;;;;;;;10.77;74.52;99680.00;5071102;28;20086;-73
2022/04/06 06:07:16;;;;;;;15.23;6.82;;;;;;;11.05;73.66;99678.91;5070091;28;20045;-73
2022/04/06 06:09:42;;;;;;;16.90;7.88;;;;;;;11.16;72.68;99684.25;5069943;28;21045;-73
2022/04/06 06:12:10;;;;;;;16.92;7.50;;;;;;;11.21;72.74;99672.50;5070171;28;20074;-73
2022/04/06 06:14:36;;;;;;;11.52;6.53;;;;;;;11.15;73.59;99674.72;5070421;28;20485;-73
2022/04/06 06:17:03;;;;;;;11.60;5.95;;;;;;;10.95;73.79;99662.16;5069672;28;20110;-73
2022/04/06 06:19:30;;;;;;;13.95;5.85;;;;;;;11.18;73.42;99664.84;5070029;28;20044;-74
2022/04/06 06:21:56;;;;;;;12.65;5.43;;;;;;;11.38;71.63;99668.66;5069266;28;20467;-73
2022/04/06 06:24:24;;;;;;;14.80;5.97;;;;;;;11.68;71.19;99665.59;5070653;28;20099;-73
2022/04/06 06:26:50;;;;;;;12.60;5.78;;;;;;;11.81;70.48;99655.91;5060077;28;20052;-72
2022/04/06 06:29:18;;;;;;;14.98;5.80;;;;;;;11.68;71.18;99665.59;5068402;28;20063;-74
2022/04/06 06:31:44;;;;;;;13.13;6.38;;;;;;;11.50;71.89;99659.91;5069865;28;20496;-73
2022/04/06 06:34:11;;;;;;;11.48;6.00;;;;;;;11.65;71.41;99664.03;5070328;28;20121;-73
2022/04/06 06:36:38;;;;;;;10.82;5.50;;;;;;;11.62;70.62;99653.75;5069616;28;20040;-72
2022/04/06 06:39:05;;;;;;;13.35;5.65;;;;;;;11.75;69.93;99661.59;5068840;28;20493;-72
2022/04/06 06:41:31;;;;;;;11.10;5.57;;;;;;;11.84;70.62;99657.47;5070191;28;20049;-72
2022/04/06 06:43:58;;;;;;;13.70;5.90;;;;;;;12.07;68.82;99656.59;5069908;28;20048;-72
2022/04/06 06:46:26;;;;;;;14.27;5.22;;;;;;;12.12;68.15;99657.91;5069039;28;20101;-72
2022/04/06 06:48:54;;;;;;;16.00;5.90;;;;;;;11.90;68.25;99663.09;5068721;28;20472;-72
2022/04/06 06:51:20;;;;;;;15.23;6.28;;;;;;;11.83;68.63;99653.16;5069899;28;20040;-72
2022/04/06 06:53:46;;;;;;;10.75;4.82;;;;;;;11.86;68.45;99655.56;5069237;28;20041;-72
2022/04/06 06:56:14;;;;;;;10.23;5.25;;;;;;;11.90;66.87;99655.22;5068438;28;20052;-72
2022/04/06 06:58:40;;;;;;;10.43;5.25;;;;;;;11.65;67.17;99664.03;5069232;28;20040;-73
2022/04/06 07:01:06;;;;;;;11.00;4.70;;;;;;;11.35;67.73;99663.63;5069550;28;20102;-72
2022/04/06 07:03:34;;;;;;;12.25;5.50;;;;;;;11.55;67.33;99657.78;5069696;28;20072;-72
2022/04/06 07:06:00;;;;;;;13.82;5.40;;;;;;;11.59;67.37;99648.75;5068250;28;20696;-71
2022/04/06 07:08:26;;;;;;;14.75;5.30;;;;;;;11.76;67.89;99654.56;5068614;28;20048;-71
2022/04/06 07:10:53;;;;;;;9.00;4.72;;;;;;;12.15;66.77;99647.19;5068755;28;20113;-72
2022/04/06 07:13:19;;;;;;;10.65;4.43;;;;;;;12.24;66.12;99653.53;5070001;28;20093;-72
2022/04/06 07:15:46;;;;;;;14.23;6.28;;;;;;;12.14;66.08;99642.88;5068764;28;20048;-72
2022/04/06 07:18:13;;;;;;;10.73;5.55;;;;;;;12.20;66.14;99652.09;5069034;28;20416;-72
2022/04/06 07:20:41;;;;;;;11.02;5.18;;;;;;;12.33;64.52;99649.38;5068391;28;20083;-72
2022/04/06 07:23:08;;;;;;;13.60;5.55;;;;;;;12.18;65.66;99644.34;5067815;28;20080;-72
2022/04/06 07:25:35;;;;;;;15.70;6.25;;;;;;;12.25;65.42;99649.97;5068017;28;20291;-72
2022/04/06 07:28:02;;;;;;;9.55;5.15;;;;;;;12.41;64.55;99650.47;5061829;28;20041;-72
2022/04/06 07:30:28;;;;;;;10.35;4.90;;;;;;;12.42;65.40;99652.13;5068054;28;20037;-72
2022/04/06 07:32:55;;;;;;;11.40;5.15;;;;;;;12.77;64.01;99644.16;5068856;28;20052;-72
2022/04/06 07:35:22;;;;;;;12.27;5.45;;;;;;;12.77;64.12;99648.59;5068712;28;20098;-72
2022/04/06 07:37:51;;;;;;;7.28;4.75;;;;;;;12.84;63.54;99647.16;5069249;28;20385;-71
2022/04/06 07:40:18;;;;;;;10.05;4.82;;;;;;;12.69;63.77;99643.91;5068499;28;20057;-71
2022/04/06 07:42:46;;;;;;;11.70;5.35;;;;;;;12.66;63.66;99645.00;5068826;28;20481;-71
2022/04/06 07:45:16;;;;;;;10.88;5.20;;;;;;;12.79;63.18;99636.97;5068075;28;20114;-71
2022/04/06 07:47:42;;;;;;;10.52;5.47;;;;;;;12.71;64.65;99642.03;5067793;28;20052;-71
2022/04/06 07:50:09;;;;;;;11.27;5.95;;;;;;;11.98;67.04;99644.13;5065877;28;20522;-71
2022/04/06 07:52:37;;;;;;;9.95;5.63;;;;;;;12.03;68.45;99640.22;5067907;28;20098;-71
2022/04/06 07:55:06;;;;;;;11.68;5.43;;;;;;;12.49;67.21;99642.81;5067890;28;20036;-71
2022/04/06 07:57:34;;;;;;;13.75;6.25;;;;;;;12.81;66.52;99642.13;5068537;28;20496;-71
2022/04/06 08:00:06;;;;;;;13.93;5.65;;;;;;;12.66;66.78;99645.00;5067634;28;20048;-71
2022/04/06 08:02:32;;;;;;;12.70;5.97;;;;;;;12.88;65.22;99641.53;5067661;28;20032;-71
2022/04/06 08:04:58;;;;;;;10.52;5.90;;;;;;;12.35;66.80;99632.53;5062373;28;20110;-71
2022/04/06 08:07:25;;;;;;;11.65;6.07;;;;;;;12.40;65.72;99640.06;5048683;28;20049;-72
2022/04/06 08:09:51;;;;;;;14.07;6.20;;;;;;;12.23;66.32;99646.63;5048231;28;20485;-72
2022/04/06 08:12:19;;;;;;;11.77;6.15;;;;;;;12.20;64.66;99639.78;5048232;28;20118;-72
2022/04/06 08:14:46;;;;;;;14.32;6.43;;;;;;;12.29;64.25;99637.41;5051702;28;20045;-72
2022/04/06 08:17:12;;;;;;;14.50;6.88;;;;;;;12.01;65.63;99642.13;5066239;28;20055;-72
2022/04/06 08:19:39;;;;;;;12.18;6.90;;;;;;;12.02;65.75;99648.22;5067816;28;20044;-72
2022/04/06 08:22:05;;;;;;;15.73;6.78;;;;;;;12.19;65.69;99645.19;5068080;28;20052;-72
2022/04/06 08:24:32;;;;;;;14.77;6.55;;;;;;;12.27;65.74;99653.28;5067372;28;20044;-72
2022/04/06 08:26:58;;;;;;;16.98;6.38;;;;;;;11.82;65.98;99656.75;5067721;28;20098;-72
2022/04/06 08:29:26;;;;;;;14.13;6.53;;;;;;;11.83;66.00;99653.16;5067068;28;20444;-72
2022/04/06 08:31:53;;;;;;;13.90;5.97;;;;;;;11.83;66.28;99647.91;5068389;28;20052;-72
2022/04/06 08:34:19;;;;;;;16.13;8.50;;;;;;;11.44;67.72;99649.84;5067766;28;20048;-73
2022/04/06 08:36:46;;;;;;;15.82;6.55;;;;;;;11.55;67.68;99652.53;5048039;28;20044;-72
2022/04/06 08:39:12;;;;;;;15.40;6.80;;;;;;;11.74;66.84;99654.69;5047091;28;20041;-73
2022/04/06 08:41:39;;;;;;;14.13;6.80;;;;;;;11.55;67.46;99664.81;5047624;28;20560;-72
2022/04/06 08:44:08;;;;;;;9.98;6.43;;;;;;;11.55;66.96;99649.91;5050772;28;20040;-72
2022/04/06 08:46:38;;;;;;;8.70;5.43;;;;;;;11.44;67.61;99657.72;5067087;28;20036;-72
2022/04/06 08:49:05;;;;;;;14.82;6.85;;;;;;;11.59;67.33;99640.88;5066775;28;20132;-72
2022/04/06 08:51:34;;;;;;;18.83;8.13;;;;;;;11.97;66.08;99632.78;5067333;28;20485;-72
2022/04/06 08:54:01;;;;;;;13.50;6.45;;;;;;;11.77;66.05;99635.22;5067419;28;20058;-72
2022/04/06 08:56:27;;;;;;;12.80;5.93;;;;;;;11.84;66.26;99636.44;5067165;28;20044;-71
2022/04/06 08:58:54;;;;;;;19.20;7.47;;;;;;;12.15;66.53;99627.97;5067219;28;20052;-71
2022/04/06 09:01:21;;;;;;;14.45;5.97;;;;;;;12.55;64.82;99625.75;5068021;28;20068;-72
2022/04/06 09:03:49;;;;;;;11.77;5.80;;;;;;;12.69;63.78;99621.09;5066838;28;20044;-72
2022/04/06 09:06:16;;;;;;;13.63;5.75;;;;;;;12.97;63.47;99619.75;5066922;28;20619;-72
2022/04/06 09:08:44;;;;;;;10.55;6.50;;;;;;;12.74;62.18;99615.47;5067204;28;20041;-72
2022/04/06 09:11:12;;;;;;;12.80;6.15;;;;;;;12.74;62.53;99617.25;5066258;28;20070;-72
2022/04/06 09:13:39;;;;;;;13.48;6.65;;;;;;;13.03;62.69;99626.34;5070998;28;20467;-72
2022/04/06 09:16:08;;;;;;;12.15;6.38;;;;;;;13.42;61.16;99627.59;5071486;28;20056;-72
2022/04/06 09:18:35;;;;;;;11.65;6.18;;;;;;;13.55;60.28;99629.13;5070335;28;20044;-72
2022/04/06 09:21:03;;;;;;;14.30;5.55;;;;;;;13.25;61.27;99631.59;5066878;28;20562;-73
2022/04/06 09:23:31;;;;;;;10.25;5.28;;;;;;;13.51;59.82;99619.78;5070777;28;20114;-72
2022/04/06 09:26:03;;;;;;;10.07;5.93;;;;;;;13.68;60.16;99622.81;5071918;28;20048;-72
2022/04/06 09:28:30;;;;;;;10.35;5.22;;;;;;;13.62;60.15;99622.38;5070898;28;20434;-67
2022/04/06 09:30:56;;;;;;;11.45;5.47;;;;;;;13.12;59.71;99625.63;5070085;28;20106;-66
2022/04/06 09:33:23;;;;;;;13.10;5.65;;;;;;;12.84;59.27;99620.84;5070453;28;20133;-66
2022/04/06 09:35:49;;;;;;;9.55;5.55;;;;;;;12.55;59.56;99623.97;5071527;28;20098;-66
2022/04/06 09:38:22;;;;;;;12.20;6.03;;;;;;;12.17;60.73;99626.88;5070683;28;20102;-66
2022/04/06 09:40:49;;;;;;;;;;;;;;;12.20;61.32;99625.81;5068475;28;20060;-66
2022/04/06 09:43:26;;;;;;;12.35;5.55;;;;;;;12.27;61.71;99631.44;5071361;28;19928;-66
2022/04/06 09:48:52;;;;;;;11.80;6.18;;;;;;;12.22;62.28;99629.16;5070611;28;20121;-66
2022/04/06 09:51:20;;;;;;;11.00;6.55;;;;;;;12.29;62.12;99630.38;5070967;28;20063;-66
2022/04/06 09:53:49;;;;;;;15.70;6.72;;;;;;;12.09;62.44;99623.16;5070607;28;20045;-66
2022/04/06 09:56:17;;;;;;;10.10;5.88;;;;;;;12.07;62.35;99619.81;5071025;28;20053;-67
2022/04/06 09:58:45;;;;;;;15.98;6.85;;;;;;;12.27;62.81;99620.94;5070430;28;20094;-67
2022/04/06 10:01:13;;;;;;;11.30;6.43;;;;;;;12.31;62.28;99623.19;5065846;28;20049;-67
2022/04/06 10:03:42;;;;;;;15.35;6.88;;;;;;;12.48;62.05;99620.13;5070554;28;20067;-67
2022/04/06 10:06:10;;;;;;;10.65;6.50;;;;;;;12.56;61.04;99628.25;5069932;28;20102;-67
2022/04/06 10:08:38;;;;;;;14.50;7.05;;;;;;;12.44;63.30;99625.72;5069703;28;20072;-67
2022/04/06 10:11:06;;;;;;;13.70;5.97;;;;;;;12.36;61.70;99631.56;5068560;28;20051;-67
2022/04/06 10:13:33;;;;;;;10.35;5.63;;;;;;;12.23;62.68;99619.50;5070081;28;20048;-67
2022/04/06 10:16:00;;;;;;;11.80;5.88;;;;;;;12.11;62.90;99621.25;5070249;28;20102;-67
2022/04/06 10:18:28;;;;;;;12.57;6.47;;;;;;;12.10;62.78;99627.47;5070284;28;20048;-67
2022/04/06 10:20:59;;;;;;;12.48;5.57;;;;;;;12.18;63.26;99627.72;5070181;28;20097;-67
2022/04/06 10:23:39;;;;;;;10.82;5.07;;;;;;;11.88;63.12;99624.75;5069439;28;20109;-67
2022/04/06 10:26:22;;;;;;;7.88;4.38;;;;;;;11.66;62.42;99623.72;5070174;28;20480;-72
2022/04/06 10:28:51;;;;;;;10.98;4.63;;;;;;;11.65;63.26;99626.44;5069865;28;20036;-67
2022/04/06 10:31:19;;;;;;;11.77;5.53;;;;;;;11.95;63.04;99624.19;5069732;28;20048;-67
2022/04/06 10:33:46;;;;;;;13.88;5.72;;;;;;;11.99;62.56;99624.81;5070207;28;20419;-67
2022/04/06 10:36:21;;;;;;;11.32;5.05;;;;;;;11.97;62.63;99621.47;5069654;28;20546;-67
2022/04/06 10:39:11;;;;;;;8.95;5.07;;;;;;;12.10;62.31;99614.31;5068027;28;20049;-67
2022/04/06 10:41:41;;;;;;;10.30;4.25;;;;;;;12.31;61.17;99617.09;5062115;28;20107;-67
2022/04/06 10:44:08;;;;;;;11.05;4.63;;;;;;;12.26;59.38;99614.84;5069938;28;20048;-67
2022/04/06 10:46:38;;;;;;;8.40;3.72;;;;;;;12.45;58.90;99607.19;5068930;28;20044;-67
2022/04/06 10:49:15;;;;;;;8.73;4.30;;;;;;;12.35;58.96;99603.59;5067124;28;20076;-67
2022/04/06 10:51:43;;;;;;;10.45;4.82;;;;;;;12.45;58.23;99599.31;5069918;28;20052;-67
2022/04/06 10:54:40;;;;;;;13.38;4.68;;;;;;;12.74;58.14;99604.13;5068941;28;20048;-67
2022/04/06 10:57:08;;;;;;;6.55;3.50;;;;;;;12.69;57.07;99610.56;5061451;28;20048;-67
2022/04/06 10:59:34;;;;;;;6.97;4.20;;;;;;;12.56;56.65;99609.81;5068328;28;20037;-67
2022/04/06 11:02:23;;;;;;;8.50;4.20;;;;;;;12.62;57.35;99614.63;5069609;28;20052;-67
2022/04/06 11:04:52;;;;;;;8.65;3.70;;;;;;;12.50;57.08;99612.94;5069385;28;20048;-67
2022/04/06 11:10:06;;;;;;;9.57;3.75;;;;;;;12.27;58.14;99608.63;5069431;28;20036;-67
2022/04/06 11:10:12;;;;;;;9.40;3.35;;;;;;;12.63;57.46;99610.22;5068407;28;20048;-67
2022/04/06 11:12:57;;;;;;;5.73;3.10;;;;;;;12.85;57.34;99599.69;5069618;28;20071;-67
2022/04/06 11:15:34;;;;;;;5.07;3.35;;;;;;;12.97;56.18;99600.50;5069250;28;20040;-67
2022/04/06 11:18:00;;;;;;;4.97;2.83;;;;;;;12.83;55.59;99593.69;5067315;28;20094;-67
2022/04/06 11:20:31;;;;;;;5.93;2.90;;;;;;;12.98;54.95;99594.28;5067849;28;20040;-67
2022/04/06 11:22:58;;;;;;;8.50;2.92;;;;;;;13.16;55.24;99584.94;5069347;28;20053;-66
2022/04/06 11:25:26;;;;;;;7.38;3.08;;;;;;;13.55;55.10;99597.50;5068751;28;20052;-66
2022/04/06 11:27:55;;;;;;;4.43;2.42;;;;;;;13.50;54.36;99586.50;5069426;28;20051;-66
2022/04/06 11:30:26;;;;;;;4.45;2.70;;;;;;;13.42;54.05;99588.94;5068676;28;20063;-66
2022/04/06 11:32:54;;;;;;;6.05;3.17;;;;;;;13.63;53.02;99594.25;5068712;28;20055;-66
2022/04/06 11:35:21;;;;;;;5.28;2.70;;;;;;;13.63;52.86;99587.16;5055268;28;20045;-66